Wofford Heights, CA (93285)

4:34 PM PDT on August 31, 2016 (GMT -0700)
Hungry Gulch | | Change Station

Elev 3054 ft 35.67 °N, 118.48 °W | Updated 5 minutes ago

Clear
Clear
94.6 °F
Feels Like 90 °F
N
13.5
Wind Variable Wind from South

Today
High -- | Low -- °F
--% Chance of Precip.
Yesterday
High -- | Low -- °F
Precip. -- in
Pressure 30.03 in
Visibility 9.0 miles
Clouds Clear
Heat Index 90 °F
Dew Point 40 °F
Humidity 15%
Rainfall 0.00 in
Snow Depth Not available.
6:25 AM 7:21 PM
Waning Crescent, 0% visible
METAR KTSP 312315Z AUTO 31014KT 9SM CLR 29/07 A3003 RMK AO2
Pressure 30.03 in
Visibility 9.0 miles
Clouds Clear
Heat Index 90 °F
Dew Point 40 °F
Humidity 15%
Rainfall 0.00 in
Snow Depth Not available.
6:25 AM 7:21 PM
Waning Crescent, 0% visible
METAR KTSP 312315Z AUTO 31014KT 9SM CLR 29/07 A3003 RMK AO2

10-Day Weather Forecast

Almanac

Astronomy

Aug. 31, 2016 Rise Set
Actual Time
Civil Twilight
Nautical Twilight
Astronomical Twilight
Moon
Length of Visible Light
Length of Day
Tomorrow will be .
, % of the Moon is Illuminated

Today's Extremes

State Highs State Lows

Community

WunderPhotos

Upload Photos

1,936,215 photos uploaded!

WunderBlog® & News

Nearby

Air Quality

  Air Quality AQ Index Pollutant
Not available.

Snow Depth

Station Depth Elevation

Earthquake Activity

City Distance Mag. Time & Date
Minimum magnitude displayed is 2.5.

Coastal Water Temperatures

Place Temperature

Stations

Nearby Weather Stations

Station Location Temp. Windchill Dew Point Humidity Wind Precip. Elev Updated Type
                   

Watches & Warnings

There are currently no watches in effect.